sensor_id;sensor_type;location;lat;lon;timestamp;pressure;altitude;pressure_sealevel;temperature;humidity
56400;BME280;42298;53.638;9.876;2023-02-24T00:01:18;100943.88;;;8.46;59.45
56400;BME280;42298;53.638;9.876;2023-02-24T00:03:52;100935.41;;;8.43;59.60
56400;BME280;42298;53.638;9.876;2023-02-24T00:06:24;100926.41;;;8.37;59.63
56400;BME280;42298;53.638;9.876;2023-02-24T00:08:49;100933.50;;;8.43;59.79
56400;BME280;42298;53.638;9.876;2023-02-24T00:11:16;100932.56;;;8.53;60.13
56400;BME280;42298;53.638;9.876;2023-02-24T00:13:43;100939.22;;;8.47;59.78
56400;BME280;42298;53.638;9.876;2023-02-24T00:16:13;100925.72;;;8.50;59.78
56400;BME280;42298;53.638;9.876;2023-02-24T00:18:41;100929.91;;;8.43;60.41
56400;BME280;42298;53.638;9.876;2023-02-24T00:21:10;100915.31;;;8.47;60.15
56400;BME280;42298;53.638;9.876;2023-02-24T00:23:38;100898.41;;;8.40;60.44
56400;BME280;42298;53.638;9.876;2023-02-24T00:26:05;100917.47;;;8.50;60.09
56400;BME280;42298;53.638;9.876;2023-02-24T00:28:32;100915.03;;;8.49;59.85
56400;BME280;42298;53.638;9.876;2023-02-24T00:31:05;100901.09;;;8.45;59.72
56400;BME280;42298;53.638;9.876;2023-02-24T00:33:31;100875.16;;;8.33;60.12
56400;BME280;42298;53.638;9.876;2023-02-24T00:36:23;100881.88;;;8.45;59.53
56400;BME280;42298;53.638;9.876;2023-02-24T00:38:50;100906.28;;;8.47;59.10
56400;BME280;42298;53.638;9.876;2023-02-24T00:41:21;100896.69;;;8.44;59.78
56400;BME280;42298;53.638;9.876;2023-02-24T00:43:48;100893.66;;;8.46;59.46
56400;BME280;42298;53.638;9.876;2023-02-24T00:46:15;100887.13;;;8.42;58.99
56400;BME280;42298;53.638;9.876;2023-02-24T00:48:43;100884.84;;;8.49;58.95
56400;BME280;42298;53.638;9.876;2023-02-24T00:51:10;100866.06;;;8.37;59.15
56400;BME280;42298;53.638;9.876;2023-02-24T00:53:37;100864.53;;;8.26;58.00
56400;BME280;42298;53.638;9.876;2023-02-24T00:56:04;100857.41;;;8.25;58.30
56400;BME280;42298;53.638;9.876;2023-02-24T00:58:34;100841.88;;;8.16;58.26
56400;BME280;42298;53.638;9.876;2023-02-24T01:01:01;100831.53;;;8.08;58.22
56400;BME280;42298;53.638;9.876;2023-02-24T01:03:27;100806.97;;;7.98;58.43
56400;BME280;42298;53.638;9.876;2023-02-24T01:05:53;100842.00;;;8.29;58.02
56400;BME280;42298;53.638;9.876;2023-02-24T01:08:19;100838.94;;;8.31;58.26
56400;BME280;42298;53.638;9.876;2023-02-24T01:10:59;100817.88;;;8.26;58.47
56400;BME280;42298;53.638;9.876;2023-02-24T01:13:44;100829.84;;;8.35;58.73
56400;BME280;42298;53.638;9.876;2023-02-24T01:16:11;100806.13;;;8.26;58.19
56400;BME280;42298;53.638;9.876;2023-02-24T01:18:43;100821.09;;;8.33;58.59
56400;BME280;42298;53.638;9.876;2023-02-24T01:21:09;100812.41;;;8.26;58.84
56400;BME280;42298;53.638;9.876;2023-02-24T01:23:36;100817.28;;;8.29;58.86
56400;BME280;42298;53.638;9.876;2023-02-24T01:26:02;100796.03;;;8.16;58.02
56400;BME280;42298;53.638;9.876;2023-02-24T01:28:27;100772.47;;;7.92;58.69
56400;BME280;42298;53.638;9.876;2023-02-24T01:30:53;100801.88;;;8.10;58.69
56400;BME280;42298;53.638;9.876;2023-02-24T01:33:19;100776.78;;;7.98;59.52
56400;BME280;42298;53.638;9.876;2023-02-24T01:35:45;100806.50;;;8.14;58.68
56400;BME280;42298;53.638;9.876;2023-02-24T01:38:11;100801.06;;;8.09;58.69
56400;BME280;42298;53.638;9.876;2023-02-24T01:40:36;100775.97;;;7.97;58.61
56400;BME280;42298;53.638;9.876;2023-02-24T01:43:03;100791.66;;;8.15;59.24
56400;BME280;42298;53.638;9.876;2023-02-24T01:45:34;100783.97;;;8.17;58.41
56400;BME280;42298;53.638;9.876;2023-02-24T01:48:07;100767.91;;;8.06;58.81
56400;BME280;42298;53.638;9.876;2023-02-24T01:50:35;100783.44;;;8.15;59.01
56400;BME280;42298;53.638;9.876;2023-02-24T01:53:04;100775.22;;;8.15;58.73
56400;BME280;42298;53.638;9.876;2023-02-24T01:55:42;100757.81;;;8.01;58.47
56400;BME280;42298;53.638;9.876;2023-02-24T01:58:21;100746.84;;;8.01;59.36
56400;BME280;42298;53.638;9.876;2023-02-24T02:00:48;100760.22;;;8.08;59.00
56400;BME280;42298;53.638;9.876;2023-02-24T02:05:43;100756.53;;;8.17;58.91
56400;BME280;42298;53.638;9.876;2023-02-24T02:08:15;100751.94;;;8.13;58.61
56400;BME280;42298;53.638;9.876;2023-02-24T02:10:42;100736.41;;;8.03;59.25
56400;BME280;42298;53.638;9.876;2023-02-24T02:13:13;100741.44;;;7.96;58.70
56400;BME280;42298;53.638;9.876;2023-02-24T02:15:51;100739.16;;;8.03;59.11
56400;BME280;42298;53.638;9.876;2023-02-24T02:18:55;100741.75;;;8.13;59.06
56400;BME280;42298;53.638;9.876;2023-02-24T02:24:23;100730.97;;;7.98;59.48
56400;BME280;42298;53.638;9.876;2023-02-24T02:27:07;100717.44;;;7.83;58.90
56400;BME280;42298;53.638;9.876;2023-02-24T02:29:55;100713.38;;;7.80;59.15
56400;BME280;42298;53.638;9.876;2023-02-24T02:32:48;100714.50;;;7.79;59.86
56400;BME280;42298;53.638;9.876;2023-02-24T02:35:18;100705.72;;;7.77;59.70
56400;BME280;42298;53.638;9.876;2023-02-24T02:37:51;100699.72;;;7.75;59.65
56400;BME280;42298;53.638;9.876;2023-02-24T02:40:38;100703.28;;;7.76;59.43
56400;BME280;42298;53.638;9.876;2023-02-24T02:43:31;100695.41;;;7.69;58.96
56400;BME280;42298;53.638;9.876;2023-02-24T02:46:30;100688.47;;;7.77;59.54
56400;BME280;42298;53.638;9.876;2023-02-24T02:49:05;100677.56;;;7.72;59.18
56400;BME280;42298;53.638;9.876;2023-02-24T02:51:40;100684.03;;;7.81;59.15
56400;BME280;42298;53.638;9.876;2023-02-24T02:57:17;100655.16;;;7.65;59.13
56400;BME280;42298;53.638;9.876;2023-02-24T02:59:54;100682.00;;;7.92;59.25
56400;BME280;42298;53.638;9.876;2023-02-24T03:02:25;100676.56;;;7.87;58.87
56400;BME280;42298;53.638;9.876;2023-02-24T03:04:55;100635.22;;;7.59;58.92
56400;BME280;42298;53.638;9.876;2023-02-24T03:07:26;100673.88;;;7.81;58.56
56400;BME280;42298;53.638;9.876;2023-02-24T03:09:58;100654.41;;;7.83;59.08
56400;BME280;42298;53.638;9.876;2023-02-24T03:12:25;100646.75;;;7.80;58.81
56400;BME280;42298;53.638;9.876;2023-02-24T03:14:56;100647.22;;;7.87;59.03
56400;BME280;42298;53.638;9.876;2023-02-24T03:17:26;100647.53;;;7.86;58.45
56400;BME280;42298;53.638;9.876;2023-02-24T03:20:02;100646.66;;;7.90;58.75
56400;BME280;42298;53.638;9.876;2023-02-24T03:22:46;100630.84;;;7.82;58.73
56400;BME280;42298;53.638;9.876;2023-02-24T03:25:15;100629.97;;;7.87;58.66
56400;BME280;42298;53.638;9.876;2023-02-24T03:27:49;100615.84;;;7.74;58.79
56400;BME280;42298;53.638;9.876;2023-02-24T03:30:24;100619.63;;;7.78;58.75
56400;BME280;42298;53.638;9.876;2023-02-24T03:33:18;100620.56;;;7.93;58.44
56400;BME280;42298;53.638;9.876;2023-02-24T03:35:47;100600.16;;;7.80;58.10
56400;BME280;42298;53.638;9.876;2023-02-24T03:38:16;100590.06;;;7.75;58.55
56400;BME280;42298;53.638;9.876;2023-02-24T03:40:43;100594.47;;;7.76;58.38
56400;BME280;42298;53.638;9.876;2023-02-24T03:43:17;100583.25;;;7.73;58.39
56400;BME280;42298;53.638;9.876;2023-02-24T03:45:44;100589.38;;;7.65;58.58
56400;BME280;42298;53.638;9.876;2023-02-24T03:48:11;100570.34;;;7.55;59.07
56400;BME280;42298;53.638;9.876;2023-02-24T03:50:38;100569.03;;;7.52;58.77
56400;BME280;42298;53.638;9.876;2023-02-24T03:53:30;100569.03;;;7.71;58.74
56400;BME280;42298;53.638;9.876;2023-02-24T04:01:28;100556.09;;;7.76;59.01
56400;BME280;42298;53.638;9.876;2023-02-24T04:04:04;100546.41;;;7.60;59.11
56400;BME280;42298;53.638;9.876;2023-02-24T04:06:51;100549.94;;;7.66;58.92
56400;BME280;42298;53.638;9.876;2023-02-24T04:12:15;100528.91;;;7.61;58.73
56400;BME280;42298;53.638;9.876;2023-02-24T04:14:57;100509.16;;;7.41;58.79
56400;BME280;42298;53.638;9.876;2023-02-24T04:17:33;100513.41;;;7.52;59.68
56400;BME280;42298;53.638;9.876;2023-02-24T04:20:04;100504.16;;;7.48;59.50
56400;BME280;42298;53.638;9.876;2023-02-24T04:22:37;100510.22;;;7.45;59.61
56400;BME280;42298;53.638;9.876;2023-02-24T04:25:07;100465.81;;;7.24;59.83
56400;BME280;42298;53.638;9.876;2023-02-24T04:27:41;100467.91;;;7.32;59.74
56400;BME280;42298;53.638;9.876;2023-02-24T04:30:10;100486.66;;;7.44;60.46
56400;BME280;42298;53.638;9.876;2023-02-24T04:32:37;100470.31;;;7.39;60.11
56400;BME280;42298;53.638;9.876;2023-02-24T04:35:04;100475.34;;;7.50;60.06
56400;BME280;42298;53.638;9.876;2023-02-24T04:37:31;100456.06;;;7.37;59.88
56400;BME280;42298;53.638;9.876;2023-02-24T04:40:00;100465.63;;;7.58;60.42
56400;BME280;42298;53.638;9.876;2023-02-24T04:42:25;100454.91;;;7.43;60.54
56400;BME280;42298;53.638;9.876;2023-02-24T04:44:51;100449.56;;;7.51;60.46
56400;BME280;42298;53.638;9.876;2023-02-24T04:47:18;100453.06;;;7.57;60.92
56400;BME280;42298;53.638;9.876;2023-02-24T04:49:43;100398.88;;;7.17;61.45
56400;BME280;42298;53.638;9.876;2023-02-24T04:52:08;100385.69;;;7.19;61.22
56400;BME280;42298;53.638;9.876;2023-02-24T04:54:34;100434.97;;;7.56;60.72
56400;BME280;42298;53.638;9.876;2023-02-24T04:57:00;100391.28;;;7.27;61.54
56400;BME280;42298;53.638;9.876;2023-02-24T04:59:26;100410.16;;;7.47;61.26
56400;BME280;42298;53.638;9.876;2023-02-24T05:01:51;100409.03;;;7.48;61.71
56400;BME280;42298;53.638;9.876;2023-02-24T05:04:17;100400.81;;;7.48;61.17
56400;BME280;42298;53.638;9.876;2023-02-24T05:06:44;100376.69;;;7.50;61.50
56400;BME280;42298;53.638;9.876;2023-02-24T05:09:11;100384.69;;;7.47;61.78
56400;BME280;42298;53.638;9.876;2023-02-24T05:11:48;100373.91;;;7.37;61.99
56400;BME280;42298;53.638;9.876;2023-02-24T05:14:18;100367.41;;;7.33;61.96
56400;BME280;42298;53.638;9.876;2023-02-24T05:16:47;100356.56;;;7.23;62.08
56400;BME280;42298;53.638;9.876;2023-02-24T05:19:15;100370.03;;;7.38;62.36
56400;BME280;42298;53.638;9.876;2023-02-24T05:22:00;100356.34;;;7.38;62.19
56400;BME280;42298;53.638;9.876;2023-02-24T05:24:27;100344.38;;;7.34;62.17
56400;BME280;42298;53.638;9.876;2023-02-24T05:26:55;100345.09;;;7.39;61.84
56400;BME280;42298;53.638;9.876;2023-02-24T05:29:28;100326.81;;;7.35;62.00
56400;BME280;42298;53.638;9.876;2023-02-24T05:31:55;100304.34;;;7.19;62.37
56400;BME280;42298;53.638;9.876;2023-02-24T05:34:28;100293.59;;;7.23;61.93
56400;BME280;42298;53.638;9.876;2023-02-24T05:36:58;100293.53;;;7.28;62.10
56400;BME280;42298;53.638;9.876;2023-02-24T05:39:25;100325.47;;;7.51;61.92
56400;BME280;42298;53.638;9.876;2023-02-24T05:41:51;100306.28;;;7.51;62.04
56400;BME280;42298;53.638;9.876;2023-02-24T05:44:19;100281.47;;;7.42;61.36
56400;BME280;42298;53.638;9.876;2023-02-24T05:46:50;100311.66;;;7.56;61.86
56400;BME280;42298;53.638;9.876;2023-02-24T05:49:22;100303.88;;;7.31;62.73
56400;BME280;42298;53.638;9.876;2023-02-24T05:51:49;100296.91;;;7.38;62.20
56400;BME280;42298;53.638;9.876;2023-02-24T05:54:26;100313.97;;;7.49;62.72
56400;BME280;42298;53.638;9.876;2023-02-24T05:56:55;100271.44;;;7.38;62.88
56400;BME280;42298;53.638;9.876;2023-02-24T05:59:22;100294.72;;;7.54;63.20
56400;BME280;42298;53.638;9.876;2023-02-24T06:01:49;100293.59;;;7.55;63.74
56400;BME280;42298;53.638;9.876;2023-02-24T06:04:17;100278.09;;;7.64;63.83
56400;BME280;42298;53.638;9.876;2023-02-24T06:06:52;100256.75;;;7.47;64.04
56400;BME280;42298;53.638;9.876;2023-02-24T06:09:18;100277.50;;;7.67;64.51
56400;BME280;42298;53.638;9.876;2023-02-24T06:11:47;100282.34;;;7.56;64.59
56400;BME280;42298;53.638;9.876;2023-02-24T06:14:13;100272.28;;;7.52;65.30
56400;BME280;42298;53.638;9.876;2023-02-24T06:16:41;100270.94;;;7.36;65.43
56400;BME280;42298;53.638;9.876;2023-02-24T06:19:09;100255.56;;;7.21;65.77
56400;BME280;42298;53.638;9.876;2023-02-24T06:21:37;100258.41;;;7.16;66.76
56400;BME280;42298;53.638;9.876;2023-02-24T06:24:06;100243.03;;;7.02;66.90
56400;BME280;42298;53.638;9.876;2023-02-24T06:26:34;100245.06;;;7.10;67.05
56400;BME280;42298;53.638;9.876;2023-02-24T06:29:01;100248.03;;;7.13;67.39
56400;BME280;42298;53.638;9.876;2023-02-24T06:31:28;100215.69;;;6.83;67.47
56400;BME280;42298;53.638;9.876;2023-02-24T06:33:53;100237.25;;;7.03;67.87
56400;BME280;42298;53.638;9.876;2023-02-24T06:36:20;100240.72;;;7.09;67.42
56400;BME280;42298;53.638;9.876;2023-02-24T06:38:46;100226.44;;;7.12;67.70
56400;BME280;42298;53.638;9.876;2023-02-24T06:41:13;100225.31;;;7.13;67.46
56400;BME280;42298;53.638;9.876;2023-02-24T06:43:41;100218.88;;;7.04;67.83
56400;BME280;42298;53.638;9.876;2023-02-24T06:46:08;100219.59;;;6.96;68.34
56400;BME280;42298;53.638;9.876;2023-02-24T06:48:34;100202.59;;;6.80;68.26
56400;BME280;42298;53.638;9.876;2023-02-24T06:51:04;100209.88;;;7.03;68.33
56400;BME280;42298;53.638;9.876;2023-02-24T06:53:30;100177.53;;;6.73;68.30
56400;BME280;42298;53.638;9.876;2023-02-24T06:56:02;100206.06;;;6.86;68.66
56400;BME280;42298;53.638;9.876;2023-02-24T06:58:28;100188.25;;;6.70;68.32
56400;BME280;42298;53.638;9.876;2023-02-24T07:00:53;100178.63;;;6.72;68.53
56400;BME280;42298;53.638;9.876;2023-02-24T07:03:23;100185.34;;;6.80;68.93
56400;BME280;42298;53.638;9.876;2023-02-24T07:05:54;100172.38;;;6.72;68.77
56400;BME280;42298;53.638;9.876;2023-02-24T07:08:35;100169.69;;;6.67;68.91
56400;BME280;42298;53.638;9.876;2023-02-24T07:11:03;100141.47;;;6.53;68.95
56400;BME280;42298;53.638;9.876;2023-02-24T07:13:32;100160.28;;;6.73;68.81
56400;BME280;42298;53.638;9.876;2023-02-24T07:15:59;100155.84;;;6.77;68.82
56400;BME280;42298;53.638;9.876;2023-02-24T07:18:31;100159.41;;;6.77;69.08
56400;BME280;42298;53.638;9.876;2023-02-24T07:21:00;100134.66;;;6.69;68.67
56400;BME280;42298;53.638;9.876;2023-02-24T07:23:29;100150.28;;;6.82;68.82
56400;BME280;42298;53.638;9.876;2023-02-24T07:25:56;100138.53;;;6.81;68.87
56400;BME280;42298;53.638;9.876;2023-02-24T07:28:23;100133.34;;;6.80;69.12
56400;BME280;42298;53.638;9.876;2023-02-24T07:30:49;100132.69;;;6.88;69.02
56400;BME280;42298;53.638;9.876;2023-02-24T07:33:17;100102.19;;;6.62;68.87
56400;BME280;42298;53.638;9.876;2023-02-24T07:35:48;100101.97;;;6.59;69.04
56400;BME280;42298;53.638;9.876;2023-02-24T07:38:15;100110.59;;;6.52;69.01
56400;BME280;42298;53.638;9.876;2023-02-24T07:40:41;100133.34;;;6.48;69.16
56400;BME280;42298;53.638;9.876;2023-02-24T07:43:07;100111.66;;;6.51;69.54
56400;BME280;42298;53.638;9.876;2023-02-24T07:45:32;100088.34;;;6.40;69.73
56400;BME280;42298;53.638;9.876;2023-02-24T07:47:58;100097.50;;;6.49;70.16
56400;BME280;42298;53.638;9.876;2023-02-24T07:50:26;100102.28;;;6.57;69.56
56400;BME280;42298;53.638;9.876;2023-02-24T07:52:52;100087.28;;;6.55;69.69
56400;BME280;42298;53.638;9.876;2023-02-24T07:55:18;100095.94;;;6.75;69.42
56400;BME280;42298;53.638;9.876;2023-02-24T07:57:43;100095.94;;;6.75;69.64
56400;BME280;42298;53.638;9.876;2023-02-24T08:00:14;100087.25;;;6.73;69.51
56400;BME280;42298;53.638;9.876;2023-02-24T08:02:47;100075.28;;;6.83;69.55
56400;BME280;42298;53.638;9.876;2023-02-24T08:05:17;100038.97;;;6.64;69.65
56400;BME280;42298;53.638;9.876;2023-02-24T08:07:45;100068.72;;;6.84;69.11
56400;BME280;42298;53.638;9.876;2023-02-24T08:10:15;100059.91;;;6.87;69.74
56400;BME280;42298;53.638;9.876;2023-02-24T08:12:49;100040.81;;;6.68;69.34
56400;BME280;42298;53.638;9.876;2023-02-24T08:15:22;100054.03;;;6.93;69.31
56400;BME280;42298;53.638;9.876;2023-02-24T08:17:52;100057.69;;;7.02;68.94
56400;BME280;42298;53.638;9.876;2023-02-24T08:20:19;100025.03;;;6.79;69.28
56400;BME280;42298;53.638;9.876;2023-02-24T08:22:48;100025.72;;;6.71;69.49
56400;BME280;42298;53.638;9.876;2023-02-24T08:25:22;100014.59;;;6.81;69.81
56400;BME280;42298;53.638;9.876;2023-02-24T08:27:51;99995.63;;;6.71;69.49
56400;BME280;42298;53.638;9.876;2023-02-24T08:30:23;100014.59;;;6.81;69.50
56400;BME280;42298;53.638;9.876;2023-02-24T08:32:51;100020.84;;;6.81;69.69
56400;BME280;42298;53.638;9.876;2023-02-24T08:35:27;100007.09;;;6.86;69.82
56400;BME280;42298;53.638;9.876;2023-02-24T08:38:06;99998.66;;;6.96;69.74
56400;BME280;42298;53.638;9.876;2023-02-24T08:40:52;100004.88;;;7.15;68.88
56400;BME280;42298;53.638;9.876;2023-02-24T08:43:23;99983.47;;;6.77;69.74
56400;BME280;42298;53.638;9.876;2023-02-24T08:46:01;99986.09;;;6.82;69.88
56400;BME280;42298;53.638;9.876;2023-02-24T08:48:36;99980.25;;;7.02;69.51
56400;BME280;42298;53.638;9.876;2023-02-24T08:51:09;99961.56;;;6.90;69.60
56400;BME280;42298;53.638;9.876;2023-02-24T08:53:36;99962.00;;;6.84;69.37
56400;BME280;42298;53.638;9.876;2023-02-24T08:56:06;99970.28;;;6.92;69.78
56400;BME280;42298;53.638;9.876;2023-02-24T08:58:37;99924.06;;;6.91;70.05
56400;BME280;42298;53.638;9.876;2023-02-24T09:01:08;99946.97;;;6.95;69.92
56400;BME280;42298;53.638;9.876;2023-02-24T09:03:44;99961.19;;;6.97;69.98
56400;BME280;42298;53.638;9.876;2023-02-24T09:06:11;99942.03;;;6.83;70.31
56400;BME280;42298;53.638;9.876;2023-02-24T09:08:38;99941.94;;;6.88;70.01
56400;BME280;42298;53.638;9.876;2023-02-24T09:11:09;99942.09;;;6.92;70.07
56400;BME280;42298;53.638;9.876;2023-02-24T09:13:39;99929.56;;;6.91;69.96
56400;BME280;42298;53.638;9.876;2023-02-24T09:16:17;99928.22;;;7.02;70.17
56400;BME280;42298;53.638;9.876;2023-02-24T09:18:43;99915.88;;;6.91;70.01
56400;BME280;42298;53.638;9.876;2023-02-24T09:21:13;99935.53;;;7.06;70.02
56400;BME280;42298;53.638;9.876;2023-02-24T09:23:58;99920.66;;;6.85;70.43
56400;BME280;42298;53.638;9.876;2023-02-24T09:26:25;99916.16;;;7.03;70.54
56400;BME280;42298;53.638;9.876;2023-02-24T09:28:50;99900.97;;;6.83;69.98
56400;BME280;42298;53.638;9.876;2023-02-24T09:31:21;99915.16;;;6.99;70.46
56400;BME280;42298;53.638;9.876;2023-02-24T09:34:07;99894.06;;;6.86;69.83
56400;BME280;42298;53.638;9.876;2023-02-24T09:36:35;99893.59;;;6.84;70.55
56400;BME280;42298;53.638;9.876;2023-02-24T09:39:09;99909.69;;;6.99;70.56
56400;BME280;42298;53.638;9.876;2023-02-24T09:41:44;99903.88;;;7.14;70.31
56400;BME280;42298;53.638;9.876;2023-02-24T09:44:41;99905.88;;;7.22;70.32
56400;BME280;42298;53.638;9.876;2023-02-24T09:52:39;99863.00;;;7.17;70.47
56400;BME280;42298;53.638;9.876;2023-02-24T09:58:19;99877.78;;;7.52;70.12
56400;BME280;42298;53.638;9.876;2023-02-24T10:06:30;99875.78;;;7.44;70.17
56400;BME280;42298;53.638;9.876;2023-02-24T10:09:16;99877.28;;;7.50;70.61
56400;BME280;42298;53.638;9.876;2023-02-24T10:17:22;99859.91;;;7.76;70.47
56400;BME280;42298;53.638;9.876;2023-02-24T10:20:35;99858.13;;;7.72;70.24
56400;BME280;42298;53.638;9.876;2023-02-24T10:22:43;99836.56;;;7.57;69.85
56400;BME280;42298;53.638;9.876;2023-02-24T10:25:23;99842.94;;;7.66;69.63
56400;BME280;42298;53.638;9.876;2023-02-24T10:28:26;99832.28;;;7.64;70.52
56400;BME280;42298;53.638;9.876;2023-02-24T10:31:11;99824.75;;;7.48;70.62
56400;BME280;42298;53.638;9.876;2023-02-24T10:33:55;99803.63;;;7.48;70.46
56400;BME280;42298;53.638;9.876;2023-02-24T10:36:23;99820.50;;;7.64;70.80
56400;BME280;42298;53.638;9.876;2023-02-24T10:39:01;99808.41;;;7.65;70.41
56400;BME280;42298;53.638;9.876;2023-02-24T10:41:45;99818.03;;;7.84;70.12
56400;BME280;42298;53.638;9.876;2023-02-24T10:44:18;99805.59;;;7.78;70.68
56400;BME280;42298;53.638;9.876;2023-02-24T10:46:44;99807.56;;;7.87;70.42
56400;BME280;42298;53.638;9.876;2023-02-24T10:49:10;99817.16;;;7.98;70.35
56400;BME280;42298;53.638;9.876;2023-02-24T10:51:42;99810.25;;;8.09;70.56
56400;BME280;42298;53.638;9.876;2023-02-24T10:54:21;99802.84;;;8.09;69.77
56400;BME280;42298;53.638;9.876;2023-02-24T10:57:06;99776.44;;;7.82;70.23
56400;BME280;42298;53.638;9.876;2023-02-24T10:59:53;99780.41;;;8.07;70.08
56400;BME280;42298;53.638;9.876;2023-02-24T11:02:34;99781.88;;;8.13;70.39
56400;BME280;42298;53.638;9.876;2023-02-24T11:05:21;99784.31;;;8.15;70.20
56400;BME280;42298;53.638;9.876;2023-02-24T11:08:20;99765.38;;;8.35;70.08
56400;BME280;42298;53.638;9.876;2023-02-24T11:11:15;99761.72;;;8.48;69.98
56400;BME280;42298;53.638;9.876;2023-02-24T11:13:51;99746.34;;;8.39;69.67
56400;BME280;42298;53.638;9.876;2023-02-24T11:16:54;99735.69;;;8.37;70.56
56400;BME280;42298;53.638;9.876;2023-02-24T11:19:55;99736.66;;;8.41;70.57
56400;BME280;42298;53.638;9.876;2023-02-24T11:22:30;99731.03;;;8.46;71.37
56400;BME280;42298;53.638;9.876;2023-02-24T11:25:05;99721.84;;;8.59;71.25
56400;BME280;42298;53.638;9.876;2023-02-24T11:27:31;99703.13;;;8.61;70.54
56400;BME280;42298;53.638;9.876;2023-02-24T11:30:08;99709.59;;;8.74;70.73
56400;BME280;42298;53.638;9.876;2023-02-24T11:33:01;99702.00;;;8.96;70.25
56400;BME280;42298;53.638;9.876;2023-02-24T11:35:54;99668.72;;;8.89;69.61
56400;BME280;42298;53.638;9.876;2023-02-24T11:41:11;99686.13;;;9.27;69.68
56400;BME280;42298;53.638;9.876;2023-02-24T11:43:42;99677.72;;;9.24;69.31
56400;BME280;42298;53.638;9.876;2023-02-24T11:46:14;99673.84;;;9.16;69.87
56400;BME280;42298;53.638;9.876;2023-02-24T11:48:45;99674.16;;;9.32;69.36
56400;BME280;42298;53.638;9.876;2023-02-24T11:51:22;99679.66;;;9.32;69.64
56400;BME280;42298;53.638;9.876;2023-02-24T11:53:52;99661.66;;;9.43;69.53
56400;BME280;42298;53.638;9.876;2023-02-24T11:56:27;99649.06;;;9.42;69.18
56400;BME280;42298;53.638;9.876;2023-02-24T11:59:18;99662.34;;;9.77;70.21
56400;BME280;42298;53.638;9.876;2023-02-24T12:01:55;99637.19;;;9.96;69.22
56400;BME280;42298;53.638;9.876;2023-02-24T12:04:34;99644.72;;;10.37;69.41
56400;BME280;42298;53.638;9.876;2023-02-24T12:09:31;99635.09;;;10.63;66.78
56400;BME280;42298;53.638;9.876;2023-02-24T12:12:17;99628.78;;;10.63;67.03
56400;BME280;42298;53.638;9.876;2023-02-24T12:14:50;99630.13;;;10.57;66.69
56400;BME280;42298;53.638;9.876;2023-02-24T12:17:40;99623.56;;;10.49;66.65
56400;BME280;42298;53.638;9.876;2023-02-24T12:20:26;99617.09;;;10.66;67.42
56400;BME280;42298;53.638;9.876;2023-02-24T12:22:56;99624.56;;;10.65;67.41
56400;BME280;42298;53.638;9.876;2023-02-24T12:25:36;99623.09;;;10.68;67.16
56400;BME280;42298;53.638;9.876;2023-02-24T12:42:27;99605.56;;;10.31;68.71
56400;BME280;42298;53.638;9.876;2023-02-24T12:47:35;99562.50;;;10.15;67.91
56400;BME280;42298;53.638;9.876;2023-02-24T12:50:12;99611.09;;;10.52;68.71
56400;BME280;42298;53.638;9.876;2023-02-24T12:55:43;99598.78;;;10.70;69.13
56400;BME280;42298;53.638;9.876;2023-02-24T12:58:14;99592.38;;;10.78;69.74
56400;BME280;42298;53.638;9.876;2023-02-24T13:00:59;99577.03;;;10.89;68.92
56400;BME280;42298;53.638;9.876;2023-02-24T13:03:38;99566.69;;;10.86;68.51
56400;BME280;42298;53.638;9.876;2023-02-24T13:11:55;99539.34;;;11.13;68.57
56400;BME280;42298;53.638;9.876;2023-02-24T13:14:30;99540.81;;;11.23;67.69
56400;BME280;42298;53.638;9.876;2023-02-24T13:17:05;99551.28;;;11.29;67.53
56400;BME280;42298;53.638;9.876;2023-02-24T13:19:31;99548.88;;;11.28;67.44
56400;BME280;42298;53.638;9.876;2023-02-24T13:22:19;99554.94;;;11.09;67.49
56400;BME280;42298;53.638;9.876;2023-02-24T13:24:54;99547.13;;;11.11;67.79
56400;BME280;42298;53.638;9.876;2023-02-24T13:27:22;99535.06;;;11.04;68.13
56400;BME280;42298;53.638;9.876;2023-02-24T13:32:28;99544.34;;;10.99;68.42
56400;BME280;42298;53.638;9.876;2023-02-24T13:35:41;99533.22;;;10.96;68.42
56400;BME280;42298;53.638;9.876;2023-02-24T13:37:44;99542.28;;;10.96;68.25
56400;BME280;42298;53.638;9.876;2023-02-24T13:45:24;99535.75;;;10.56;66.97
56400;BME280;42298;53.638;9.876;2023-02-24T13:51:34;99499.16;;;10.56;67.00
56400;BME280;42298;53.638;9.876;2023-02-24T13:56:43;99505.72;;;10.63;66.82
56400;BME280;42298;53.638;9.876;2023-02-24T14:02:18;99496.78;;;10.66;66.67
56400;BME280;42298;53.638;9.876;2023-02-24T14:04:37;99489.00;;;10.80;67.08
56400;BME280;42298;53.638;9.876;2023-02-24T14:07:10;99465.56;;;10.62;66.50
56400;BME280;42298;53.638;9.876;2023-02-24T14:09:44;99472.56;;;10.72;66.83
56400;BME280;42298;53.638;9.876;2023-02-24T14:12:23;99490.50;;;10.90;66.35
56400;BME280;42298;53.638;9.876;2023-02-24T14:14:49;99483.19;;;10.94;66.38
56400;BME280;42298;53.638;9.876;2023-02-24T14:17:35;99491.47;;;11.18;65.83
56400;BME280;42298;53.638;9.876;2023-02-24T14:22:55;99465.63;;;11.22;65.37
56400;BME280;42298;53.638;9.876;2023-02-24T14:25:25;99475.03;;;11.21;65.67
56400;BME280;42298;53.638;9.876;2023-02-24T14:27:53;99460.91;;;11.11;65.39
56400;BME280;42298;53.638;9.876;2023-02-24T14:30:34;99478.25;;;11.23;63.94
56400;BME280;42298;53.638;9.876;2023-02-24T14:33:01;99468.47;;;11.14;63.56
56400;BME280;42298;53.638;9.876;2023-02-24T14:35:44;99460.69;;;11.04;63.69
56400;BME280;42298;53.638;9.876;2023-02-24T14:41:44;99438.75;;;10.83;63.35
56400;BME280;42298;53.638;9.876;2023-02-24T14:44:27;99455.66;;;11.06;63.18
56400;BME280;42298;53.638;9.876;2023-02-24T14:46:58;99442.44;;;10.87;62.64
56400;BME280;42298;53.638;9.876;2023-02-24T14:49:26;99408.91;;;10.73;63.41
56400;BME280;42298;53.638;9.876;2023-02-24T14:52:01;99455.41;;;10.99;63.27
56400;BME280;42298;53.638;9.876;2023-02-24T14:54:43;99454.84;;;11.05;63.37
56400;BME280;42298;53.638;9.876;2023-02-24T14:57:16;99452.91;;;11.18;64.07
56400;BME280;42298;53.638;9.876;2023-02-24T14:59:45;99455.19;;;11.04;63.90
56400;BME280;42298;53.638;9.876;2023-02-24T15:02:18;99439.91;;;10.94;63.68